createdAt,value
2022-11-23T00:01:06.566Z,97.7
2022-11-23T00:04:06.533Z,97.8
2022-11-23T00:07:06.569Z,97.8
2022-11-23T00:10:06.544Z,97.8
2022-11-23T00:13:06.543Z,97.7
2022-11-23T00:16:06.545Z,97.7
2022-11-23T00:19:06.570Z,97.7
2022-11-23T00:22:06.551Z,97.7
2022-11-23T00:25:06.616Z,97.6
2022-11-23T00:28:06.552Z,97.7
2022-11-23T00:31:06.552Z,97.7
2022-11-23T00:34:06.558Z,97.7
2022-11-23T00:37:06.675Z,97.7
2022-11-23T00:40:06.553Z,97.7
2022-11-23T00:43:06.554Z,97.6
2022-11-23T00:46:06.568Z,97.6
2022-11-23T00:49:06.565Z,97.6
2022-11-23T00:52:06.565Z,97.5
2022-11-23T00:55:06.590Z,97.5
2022-11-23T00:58:06.566Z,97.4
2022-11-23T01:01:06.646Z,97.3
2022-11-23T01:04:06.575Z,97.3
2022-11-23T01:07:06.611Z,97.1
2022-11-23T01:10:06.580Z,96.8
2022-11-23T01:13:06.603Z,96.6
2022-11-23T01:16:06.584Z,96.4
2022-11-23T01:19:06.581Z,96.2
2022-11-23T01:22:06.584Z,96.1
2022-11-23T01:25:06.590Z,96.1
2022-11-23T01:28:06.591Z,96.3
2022-11-23T01:31:06.619Z,96.6
2022-11-23T01:34:06.598Z,96.8
2022-11-23T01:37:06.596Z,97
2022-11-23T01:40:06.606Z,97.2
2022-11-23T01:43:06.602Z,97.3
2022-11-23T01:46:06.605Z,97.4
2022-11-23T01:49:06.630Z,97.5
2022-11-23T01:52:06.607Z,97.6
2022-11-23T01:55:08.561Z,97.7
2022-11-23T01:58:06.617Z,97.7
2022-11-23T02:01:06.669Z,97.7
2022-11-23T02:04:06.622Z,97.8
2022-11-23T02:07:06.704Z,97.8
2022-11-23T02:10:06.627Z,97.8
2022-11-23T02:13:06.625Z,97.8
2022-11-23T02:16:06.633Z,97.8
2022-11-23T02:19:06.630Z,97.8
2022-11-23T02:22:06.637Z,97.7
2022-11-23T02:25:06.656Z,97.7
2022-11-23T02:28:06.642Z,97.7
2022-11-23T02:31:06.647Z,97.6
2022-11-23T02:34:06.643Z,97.6
2022-11-23T02:37:06.653Z,97.6
2022-11-23T02:40:06.653Z,97.5
2022-11-23T02:43:06.803Z,97.5
2022-11-23T02:46:06.649Z,97.3
2022-11-23T02:49:06.660Z,97.3
2022-11-23T02:52:06.660Z,97.1
2022-11-23T02:55:06.668Z,97
2022-11-23T02:58:06.673Z,96.8
2022-11-23T03:01:06.733Z,96.7
2022-11-23T03:04:06.676Z,96.6
2022-11-23T03:07:06.792Z,96.5
2022-11-23T03:10:06.685Z,96.5
2022-11-23T03:13:06.685Z,96.4
2022-11-23T03:16:06.694Z,96.4
2022-11-23T03:19:06.733Z,96.4
2022-11-23T03:22:06.710Z,96.5
2022-11-23T03:25:06.706Z,96.6
2022-11-23T03:28:06.714Z,96.7
2022-11-23T03:31:06.735Z,96.7
2022-11-23T03:34:06.716Z,96.8
2022-11-23T03:37:06.749Z,96.7
2022-11-23T03:40:06.730Z,96.4
2022-11-23T03:43:06.731Z,96.2
2022-11-23T03:46:06.732Z,96.1
2022-11-23T03:49:06.741Z,95.9
2022-11-23T03:52:06.747Z,95.9
2022-11-23T03:55:06.793Z,96.1
2022-11-23T03:58:06.752Z,96.4
2022-11-23T04:01:06.773Z,96.4
2022-11-23T04:04:06.761Z,96.5
2022-11-23T04:07:06.813Z,96.6
2022-11-23T04:10:06.763Z,96.8
2022-11-23T04:13:06.793Z,97
2022-11-23T04:16:06.774Z,97.2
2022-11-23T04:19:06.784Z,97.4
2022-11-23T04:22:06.782Z,97.6
2022-11-23T04:25:06.790Z,97.8
2022-11-23T04:28:06.795Z,97.9
2022-11-23T04:31:06.815Z,98
2022-11-23T04:34:06.795Z,98.1
2022-11-23T04:37:10.280Z,98.2
2022-11-23T04:40:06.795Z,98.2
2022-11-23T04:43:06.796Z,98.3
2022-11-23T04:46:06.804Z,98.3
2022-11-23T04:49:06.837Z,98.4
2022-11-23T04:52:06.807Z,98.4
2022-11-23T04:55:06.815Z,98.4
2022-11-23T04:58:06.815Z,98.5
2022-11-23T05:01:06.882Z,98.6
2022-11-23T05:04:06.823Z,98.6
2022-11-23T05:07:06.900Z,98.7
2022-11-23T05:10:06.829Z,98.7
2022-11-23T05:13:06.831Z,98.7
2022-11-23T05:16:06.829Z,98.7
2022-11-23T05:19:06.830Z,98.8
2022-11-23T05:22:06.832Z,98.8
2022-11-23T05:25:06.865Z,98.8
2022-11-23T05:28:23.238Z,98.7
2022-11-23T05:31:06.839Z,98.6
2022-11-23T05:34:06.847Z,98.5
2022-11-23T05:37:06.857Z,98.4
2022-11-23T05:40:06.857Z,98.2
2022-11-23T05:43:06.890Z,97.8
2022-11-23T05:46:06.884Z,97.3
2022-11-23T05:49:06.886Z,96.9
2022-11-23T05:52:06.895Z,96.6
2022-11-23T05:55:06.900Z,96.3
2022-11-23T05:58:06.909Z,96.1
2022-11-23T06:01:06.944Z,95.1
2022-11-23T06:04:07.014Z,94.9
2022-11-23T06:07:06.999Z,94.6
2022-11-23T06:10:06.935Z,93.8
2022-11-23T06:13:06.949Z,93.3
2022-11-23T06:16:06.944Z,93.3
2022-11-23T06:19:06.975Z,93.2
2022-11-23T06:22:06.959Z,93
2022-11-23T06:25:06.965Z,92.8
2022-11-23T06:28:06.967Z,92.8
2022-11-23T06:31:06.980Z,92.7
2022-11-23T06:34:06.984Z,92.5
2022-11-23T06:37:07.016Z,92.2
2022-11-23T06:40:06.995Z,92.2
2022-11-23T06:43:07.000Z,92.1
2022-11-23T06:46:07.006Z,92.1
2022-11-23T06:49:07.016Z,92
2022-11-23T06:52:07.018Z,92
2022-11-23T06:55:07.053Z,91.8
2022-11-23T06:58:07.032Z,91.9
2022-11-23T07:01:07.142Z,91.9
2022-11-23T07:04:07.039Z,92
2022-11-23T07:07:07.119Z,92
2022-11-23T07:10:07.627Z,92
2022-11-23T07:13:07.121Z,91.9
2022-11-23T07:16:07.076Z,91.9
2022-11-23T07:19:07.084Z,92
2022-11-23T07:22:07.088Z,91.9
2022-11-23T07:25:07.104Z,91.9
2022-11-23T07:28:07.106Z,91.8
2022-11-23T07:31:07.138Z,91.8
2022-11-23T07:34:07.114Z,91.8
2022-11-23T07:37:07.129Z,91.7
2022-11-23T07:40:07.126Z,91.6
2022-11-23T07:43:07.141Z,91.5
2022-11-23T07:46:07.151Z,91.6
2022-11-23T07:49:07.184Z,91.6
2022-11-23T07:52:07.161Z,91.6
2022-11-23T07:55:07.176Z,91.4
2022-11-23T07:58:07.180Z,91.3
2022-11-23T08:01:07.210Z,91.2
2022-11-23T08:04:07.199Z,91
2022-11-23T08:07:07.268Z,90.9
2022-11-23T08:10:07.214Z,90.7
2022-11-23T08:13:07.220Z,90.5
2022-11-23T08:16:07.231Z,90.5
2022-11-23T08:19:07.242Z,90.4
2022-11-23T08:22:07.245Z,90.3
2022-11-23T08:25:07.285Z,90.1
2022-11-23T08:28:07.263Z,89.8
2022-11-23T08:31:07.271Z,89.6
2022-11-23T08:34:07.344Z,89.4
2022-11-23T08:37:07.292Z,89.2
2022-11-23T08:40:07.303Z,89.1
2022-11-23T08:43:07.335Z,89
2022-11-23T08:46:11.026Z,88.5
2022-11-23T08:49:07.332Z,88.1
2022-11-23T08:52:07.344Z,87.8
2022-11-23T08:55:07.356Z,87.4
2022-11-23T08:58:11.912Z,87.3
2022-11-23T09:01:07.430Z,87.2
2022-11-23T09:04:07.379Z,87
2022-11-23T09:07:07.460Z,86.9
2022-11-23T09:10:07.402Z,86.7
2022-11-23T09:13:07.443Z,86.7
2022-11-23T09:16:07.458Z,86.7
2022-11-23T09:19:07.501Z,86.6
2022-11-23T09:22:07.480Z,86.4
2022-11-23T09:25:07.603Z,86.2
2022-11-23T09:28:07.486Z,86.1
2022-11-23T09:31:07.590Z,86
2022-11-23T09:34:07.482Z,85.9
2022-11-23T09:37:07.516Z,85.8
2022-11-23T09:40:07.482Z,85.5
2022-11-23T09:43:07.486Z,85.4
2022-11-23T09:46:07.488Z,85.1
2022-11-23T09:49:07.488Z,85
2022-11-23T09:52:07.486Z,84.7
2022-11-23T09:55:07.515Z,84.6
2022-11-23T09:58:07.489Z,84.4
2022-11-23T10:01:07.627Z,84.4
2022-11-23T10:04:07.490Z,84.4
2022-11-23T10:07:07.516Z,84.2
2022-11-23T10:10:07.490Z,83.9
2022-11-23T10:13:07.515Z,83.6
2022-11-23T10:16:07.496Z,83.4
2022-11-23T10:19:07.491Z,83.4
2022-11-23T10:22:07.492Z,83
2022-11-23T10:25:07.499Z,83
2022-11-23T10:28:07.501Z,82.9
2022-11-23T10:31:07.543Z,82.6
2022-11-23T10:34:07.499Z,82.5
2022-11-23T10:37:07.499Z,82.2
2022-11-23T10:40:07.500Z,82
2022-11-23T10:43:07.499Z,81.6
2022-11-23T10:46:07.526Z,81.5
2022-11-23T10:49:07.526Z,81.3
2022-11-23T10:52:07.505Z,80.9
2022-11-23T10:55:07.506Z,80.7
2022-11-23T10:58:07.508Z,79.9
2022-11-23T11:01:07.518Z,79.8
2022-11-23T11:04:07.525Z,80.2
2022-11-23T11:07:07.587Z,79.3
2022-11-23T11:10:07.521Z,79.6
2022-11-23T11:13:07.531Z,79.4
2022-11-23T11:16:07.523Z,78.9
2022-11-23T11:19:07.530Z,79
2022-11-23T11:22:07.527Z,79.3
2022-11-23T11:25:07.552Z,79.2
2022-11-23T11:28:07.533Z,79.3
2022-11-23T11:31:07.534Z,79.2
2022-11-23T11:34:07.538Z,79.3
2022-11-23T11:37:07.546Z,79.3
2022-11-23T11:40:07.549Z,79
2022-11-23T11:43:07.576Z,79.2
2022-11-23T11:46:27.809Z,78.9
2022-11-23T11:49:07.575Z,79
2022-11-23T11:52:07.558Z,79.2
2022-11-23T11:55:07.562Z,78.9
2022-11-23T11:58:07.615Z,79
2022-11-23T12:01:07.596Z,79
2022-11-23T12:04:07.571Z,78.9
2022-11-23T12:07:07.590Z,78.8
2022-11-23T12:10:07.583Z,79
2022-11-23T12:13:07.583Z,78.8
2022-11-23T12:16:07.582Z,78.8
2022-11-23T12:19:07.620Z,79
2022-11-23T12:22:07.643Z,78.5
2022-11-23T12:25:07.603Z,78.5
2022-11-23T12:28:07.598Z,78.6
2022-11-23T12:31:07.620Z,78.6
2022-11-23T12:34:07.604Z,78.7
2022-11-23T12:37:07.632Z,78.4
2022-11-23T12:40:07.616Z,78.2
2022-11-23T12:43:07.612Z,77.8
2022-11-23T12:46:07.616Z,77.9
2022-11-23T12:49:07.625Z,77.8
2022-11-23T12:52:07.626Z,77.5
2022-11-23T12:55:07.678Z,77.1
2022-11-23T12:58:07.638Z,76.8
2022-11-23T13:01:07.697Z,76.5
2022-11-23T13:04:07.649Z,76.2
2022-11-23T13:07:43.434Z,76.2
2022-11-23T13:10:07.670Z,76.3
2022-11-23T13:13:11.194Z,76.3
2022-11-23T13:16:07.804Z,76.4
2022-11-23T13:19:07.684Z,76.6
2022-11-23T13:22:07.687Z,76.9
2022-11-23T13:25:07.690Z,77.3
2022-11-23T13:28:07.700Z,77.6
2022-11-23T13:31:14.843Z,77.7
2022-11-23T13:34:07.712Z,77.6
2022-11-23T13:37:12.480Z,77.7
2022-11-23T13:40:07.782Z,77.8
2022-11-23T13:43:07.740Z,77.9
2022-11-23T13:46:07.824Z,77.9
2022-11-23T13:49:07.793Z,77.7
2022-11-23T13:52:07.774Z,77.8
2022-11-23T13:55:10.016Z,77.9
2022-11-23T13:58:07.783Z,78
2022-11-23T14:01:07.870Z,78.1
2022-11-23T14:04:07.798Z,78
2022-11-23T14:07:07.919Z,77.9
2022-11-23T14:10:10.067Z,77.8
2022-11-23T14:13:07.827Z,77.8
2022-11-23T14:16:07.900Z,78
2022-11-23T14:19:07.843Z,78.4
2022-11-23T14:22:07.850Z,78.6
2022-11-23T14:25:08.098Z,78.8
2022-11-23T14:28:07.862Z,79.1
2022-11-23T14:31:07.874Z,79.4
2022-11-23T14:34:07.885Z,79.8
2022-11-23T14:37:07.893Z,80.2
2022-11-23T14:40:07.896Z,80.6
2022-11-23T14:43:07.931Z,80.9
2022-11-23T14:46:07.957Z,81.3
2022-11-23T14:49:07.928Z,81.8
2022-11-23T14:52:07.936Z,82
2022-11-23T14:55:07.940Z,82.5
2022-11-23T14:58:07.952Z,83
2022-11-23T15:01:07.979Z,83.5
2022-11-23T15:04:08.077Z,84
2022-11-23T15:07:07.989Z,84
2022-11-23T15:10:07.982Z,84.4
2022-11-23T15:13:11.106Z,84.5
2022-11-23T15:16:08.008Z,84.6
2022-11-23T15:19:08.035Z,84.8
2022-11-23T15:22:08.013Z,85
2022-11-23T15:25:08.023Z,85.3
2022-11-23T15:28:08.027Z,85.5
2022-11-23T15:31:08.035Z,86
2022-11-23T15:34:08.046Z,86
2022-11-23T15:37:08.183Z,86.3
2022-11-23T15:40:08.066Z,86.4
2022-11-23T15:43:08.071Z,86.6
2022-11-23T15:46:08.142Z,86.8
2022-11-23T15:49:08.095Z,87
2022-11-23T15:52:08.108Z,87.2
2022-11-23T15:55:09.954Z,87.4
2022-11-23T15:58:08.127Z,87.9
2022-11-23T16:01:08.226Z,88.2
2022-11-23T16:04:08.147Z,88.3
2022-11-23T16:07:08.189Z,88.4
2022-11-23T16:10:08.162Z,88.5
2022-11-23T16:13:08.202Z,88.5
2022-11-23T16:16:08.193Z,88.3
2022-11-23T16:19:08.193Z,88.4
2022-11-23T16:22:08.206Z,88.5
2022-11-23T16:25:08.217Z,88.7
2022-11-23T16:28:08.228Z,88.7
2022-11-23T16:31:08.314Z,88.8
2022-11-23T16:34:08.254Z,88.7
2022-11-23T16:37:08.264Z,88.6
2022-11-23T16:40:08.280Z,88.7
2022-11-23T16:43:08.292Z,89
2022-11-23T16:46:08.359Z,89.3
2022-11-23T16:49:08.347Z,89.3
2022-11-23T16:52:08.326Z,89.3
2022-11-23T16:55:08.341Z,89.5
2022-11-23T16:58:08.352Z,89.4
2022-11-23T17:01:08.366Z,89.5
2022-11-23T17:04:08.437Z,89.6
2022-11-23T17:07:08.467Z,90
2022-11-23T17:10:08.405Z,90
2022-11-23T17:13:08.412Z,90.2
2022-11-23T17:16:08.428Z,90.5
2022-11-23T17:19:08.435Z,90.7
2022-11-23T17:22:08.446Z,90.9
2022-11-23T17:25:13.198Z,91.3
2022-11-23T17:28:08.468Z,91.3
2022-11-23T17:31:08.521Z,91.3
2022-11-23T17:34:08.493Z,91.5
2022-11-23T17:37:08.506Z,91.7
2022-11-23T17:40:08.512Z,92
2022-11-23T17:43:08.546Z,91.9
2022-11-23T17:46:08.541Z,92.1
2022-11-23T17:49:08.543Z,92.5
2022-11-23T17:52:08.551Z,93.1
2022-11-23T17:55:08.556Z,93.4
2022-11-23T17:58:08.569Z,93.6
2022-11-23T18:01:08.644Z,93.7
2022-11-23T18:04:08.586Z,93.7
2022-11-23T18:07:08.640Z,93.8
2022-11-23T18:10:08.607Z,93.7
2022-11-23T18:13:08.619Z,93.5
2022-11-23T18:16:08.656Z,93.4
2022-11-23T18:19:08.676Z,93.4
2022-11-23T18:22:08.643Z,93.6
2022-11-23T18:25:08.649Z,93.8
2022-11-23T18:28:08.658Z,93.8
2022-11-23T18:31:08.717Z,93.6
2022-11-23T18:34:08.678Z,93.6
2022-11-23T18:37:08.710Z,93.5
2022-11-23T18:40:08.688Z,93.5
2022-11-23T18:43:08.699Z,93.6
2022-11-23T18:46:08.741Z,93.7
2022-11-23T18:49:08.717Z,93.8
2022-11-23T18:52:08.722Z,94.1
2022-11-23T18:55:08.759Z,94.3
2022-11-23T18:58:08.736Z,94.5
2022-11-23T19:01:11.968Z,94.8
2022-11-23T19:04:08.838Z,95
2022-11-23T19:07:08.794Z,95.1
2022-11-23T19:10:08.771Z,95.1
2022-11-23T19:13:08.800Z,95
2022-11-23T19:16:08.840Z,94.7
2022-11-23T19:19:08.789Z,94.6
2022-11-23T19:22:08.796Z,94.6
2022-11-23T19:25:08.825Z,94.7
2022-11-23T19:28:08.814Z,94.8
2022-11-23T19:31:08.913Z,95
2022-11-23T19:34:08.825Z,95
2022-11-23T19:37:08.832Z,95
2022-11-23T19:40:08.868Z,95
2022-11-23T19:43:08.842Z,95.2
2022-11-23T19:46:08.877Z,95.4
2022-11-23T19:49:08.900Z,95.4
2022-11-23T19:52:08.865Z,95.5
2022-11-23T19:55:08.893Z,95.4
2022-11-23T19:58:08.868Z,95.2
2022-11-23T20:01:08.893Z,94.9
2022-11-23T20:04:09.993Z,94.6
2022-11-23T20:07:08.961Z,94.6
2022-11-23T20:10:08.896Z,94.7
2022-11-23T20:13:08.896Z,95
2022-11-23T20:16:08.973Z,95.1
2022-11-23T20:19:08.909Z,95.2
2022-11-23T20:22:08.918Z,95.3
2022-11-23T20:25:08.940Z,95.2
2022-11-23T20:28:08.920Z,95.2
2022-11-23T20:31:09.029Z,95.3
2022-11-23T20:34:11.052Z,95.3
2022-11-23T20:37:08.921Z,95.3
2022-11-23T20:40:08.924Z,95.2
2022-11-23T20:43:08.949Z,95.1
2022-11-23T20:46:08.969Z,95
2022-11-23T20:49:08.937Z,95
2022-11-23T20:52:08.930Z,94.9
2022-11-23T20:55:08.934Z,94.8
2022-11-23T20:58:08.931Z,94.6
2022-11-23T21:01:08.998Z,94.5
2022-11-23T21:04:09.071Z,94.3
2022-11-23T21:07:08.982Z,94.3
2022-11-23T21:10:08.969Z,94.2
2022-11-23T21:13:08.977Z,94.4
2022-11-23T21:16:09.090Z,94.6
2022-11-23T21:19:09.054Z,94.7
2022-11-23T21:22:09.063Z,94.8
2022-11-23T21:25:09.070Z,94.9
2022-11-23T21:28:09.072Z,94.8
2022-11-23T21:31:09.149Z,94.8
2022-11-23T21:34:09.112Z,94.6
2022-11-23T21:37:09.154Z,94.5
2022-11-23T21:40:09.154Z,94.5
2022-11-23T21:43:09.165Z,94.5
2022-11-23T21:46:09.198Z,94.6
2022-11-23T21:49:09.206Z,94.7
2022-11-23T21:52:09.227Z,94.7
2022-11-23T21:55:09.278Z,94.7
2022-11-23T21:58:09.274Z,94.6
2022-11-23T22:01:09.389Z,94.6
2022-11-23T22:04:09.321Z,94.5
2022-11-23T22:07:09.384Z,94.4
2022-11-23T22:10:09.363Z,94.4
2022-11-23T22:13:09.409Z,94.6
2022-11-23T22:16:09.454Z,94.8
2022-11-23T22:19:09.434Z,94.9
2022-11-23T22:22:09.451Z,95.2
2022-11-23T22:25:09.475Z,95.5
2022-11-23T22:28:09.498Z,95.7
2022-11-23T22:31:09.597Z,95.9
2022-11-23T22:34:09.536Z,96.1
2022-11-23T22:37:10.894Z,96.1
2022-11-23T22:40:09.585Z,96.1
2022-11-23T22:43:09.610Z,96.1
2022-11-23T22:46:09.664Z,96
2022-11-23T22:49:09.676Z,96
2022-11-23T22:52:09.682Z,96
2022-11-23T22:55:09.696Z,96
2022-11-23T22:58:09.719Z,96.1
2022-11-23T23:01:09.764Z,96.1
2022-11-23T23:04:09.776Z,96.1
2022-11-23T23:07:09.835Z,96.1
2022-11-23T23:10:09.824Z,96
2022-11-23T23:13:09.845Z,96.1
2022-11-23T23:16:09.987Z,96.1
2022-11-23T23:19:09.894Z,96.2
2022-11-23T23:22:09.917Z,96.2
2022-11-23T23:25:09.965Z,96.2
2022-11-23T23:28:09.954Z,96.2
2022-11-23T23:31:09.982Z,96.2
2022-11-23T23:34:09.987Z,96.2
2022-11-23T23:37:10.014Z,96.2
2022-11-23T23:40:10.028Z,96.3
2022-11-23T23:43:10.077Z,96.3
2022-11-23T23:46:10.135Z,96.4
2022-11-23T23:49:10.083Z,96.4
2022-11-23T23:52:10.106Z,96.5
2022-11-23T23:55:10.128Z,96.6
2022-11-23T23:58:10.145Z,96.7
